sensor_id;sensor_type;location;lat;lon;timestamp;P1;durP1;ratioP1;P2;durP2;ratioP2
62633;SDS011;48704;50.534;6.442;2023-05-10T00:02:16;3.50;;;1.75;;
62633;SDS011;48704;50.534;6.442;2023-05-10T00:04:41;4.80;;;1.50;;
62633;SDS011;48704;50.534;6.442;2023-05-10T00:07:06;2.95;;;1.83;;
62633;SDS011;48704;50.534;6.442;2023-05-10T00:09:31;2.55;;;1.35;;
62633;SDS011;48704;50.534;6.442;2023-05-10T00:11:57;3.00;;;1.73;;
62633;SDS011;48704;50.534;6.442;2023-05-10T00:14:23;2.47;;;1.40;;
62633;SDS011;48704;50.534;6.442;2023-05-10T00:16:48;3.40;;;1.70;;
62633;SDS011;48704;50.534;6.442;2023-05-10T00:19:13;3.40;;;1.63;;
62633;SDS011;48704;50.534;6.442;2023-05-10T00:21:39;2.53;;;1.20;;
62633;SDS011;48704;50.534;6.442;2023-05-10T00:24:04;2.35;;;1.30;;
62633;SDS011;48704;50.534;6.442;2023-05-10T00:26:29;3.42;;;1.63;;
62633;SDS011;48704;50.534;6.442;2023-05-10T00:28:55;4.38;;;2.60;;
62633;SDS011;48704;50.534;6.442;2023-05-10T00:31:20;5.78;;;2.90;;
62633;SDS011;48704;50.534;6.442;2023-05-10T00:33:45;5.13;;;3.20;;
62633;SDS011;48704;50.534;6.442;2023-05-10T00:36:11;7.65;;;4.10;;
62633;SDS011;48704;50.534;6.442;2023-05-10T00:38:36;10.73;;;3.83;;
62633;SDS011;48704;50.534;6.442;2023-05-10T00:41:01;10.88;;;4.80;;
62633;SDS011;48704;50.534;6.442;2023-05-10T00:43:27;9.43;;;4.78;;
62633;SDS011;48704;50.534;6.442;2023-05-10T00:45:52;11.20;;;4.15;;
62633;SDS011;48704;50.534;6.442;2023-05-10T00:48:18;8.10;;;4.43;;
62633;SDS011;48704;50.534;6.442;2023-05-10T00:50:43;9.15;;;4.47;;
62633;SDS011;48704;50.534;6.442;2023-05-10T00:53:09;7.93;;;4.25;;
62633;SDS011;48704;50.534;6.442;2023-05-10T00:55:35;9.48;;;5.10;;
62633;SDS011;48704;50.534;6.442;2023-05-10T00:58:00;11.40;;;5.30;;
62633;SDS011;48704;50.534;6.442;2023-05-10T01:00:26;11.82;;;5.10;;
62633;SDS011;48704;50.534;6.442;2023-05-10T01:02:52;15.07;;;6.93;;
62633;SDS011;48704;50.534;6.442;2023-05-10T01:05:18;11.15;;;5.72;;
62633;SDS011;48704;50.534;6.442;2023-05-10T01:07:44;12.02;;;5.35;;
62633;SDS011;48704;50.534;6.442;2023-05-10T01:10:09;12.35;;;6.32;;
62633;SDS011;48704;50.534;6.442;2023-05-10T01:12:36;12.27;;;6.18;;
62633;SDS011;48704;50.534;6.442;2023-05-10T01:15:05;14.35;;;5.78;;
62633;SDS011;48704;50.534;6.442;2023-05-10T01:17:33;11.43;;;5.28;;
62633;SDS011;48704;50.534;6.442;2023-05-10T01:20:00;10.90;;;5.38;;
62633;SDS011;48704;50.534;6.442;2023-05-10T01:22:32;12.27;;;5.82;;
62633;SDS011;48704;50.534;6.442;2023-05-10T01:39:01;6.47;;;3.65;;
62633;SDS011;48704;50.534;6.442;2023-05-10T01:41:39;10.02;;;4.50;;
62633;SDS011;48704;50.534;6.442;2023-05-10T01:44:29;6.50;;;3.03;;
62633;SDS011;48704;50.534;6.442;2023-05-10T01:47:05;8.35;;;3.47;;
62633;SDS011;48704;50.534;6.442;2023-05-10T01:49:34;6.78;;;3.33;;
62633;SDS011;48704;50.534;6.442;2023-05-10T01:52:08;5.93;;;2.67;;
62633;SDS011;48704;50.534;6.442;2023-05-10T01:54:38;6.03;;;2.80;;
62633;SDS011;48704;50.534;6.442;2023-05-10T01:57:07;5.00;;;2.50;;
62633;SDS011;48704;50.534;6.442;2023-05-10T01:59:37;6.35;;;2.88;;
62633;SDS011;48704;50.534;6.442;2023-05-10T02:02:05;5.95;;;2.65;;
62633;SDS011;48704;50.534;6.442;2023-05-10T02:04:32;4.68;;;2.15;;
62633;SDS011;48704;50.534;6.442;2023-05-10T02:07:02;4.45;;;2.13;;
62633;SDS011;48704;50.534;6.442;2023-05-10T02:09:28;3.90;;;2.05;;
62633;SDS011;48704;50.534;6.442;2023-05-10T02:11:57;4.18;;;2.05;;
62633;SDS011;48704;50.534;6.442;2023-05-10T02:14:24;5.15;;;2.20;;
62633;SDS011;48704;50.534;6.442;2023-05-10T02:16:51;5.18;;;2.15;;
62633;SDS011;48704;50.534;6.442;2023-05-10T02:19:20;5.03;;;1.75;;
62633;SDS011;48704;50.534;6.442;2023-05-10T02:21:48;3.17;;;1.70;;
62633;SDS011;48704;50.534;6.442;2023-05-10T02:24:16;3.58;;;1.25;;
62633;SDS011;48704;50.534;6.442;2023-05-10T02:26:42;3.47;;;1.77;;
62633;SDS011;48704;50.534;6.442;2023-05-10T02:29:10;5.10;;;2.20;;
62633;SDS011;48704;50.534;6.442;2023-05-10T02:31:37;3.85;;;1.70;;
62633;SDS011;48704;50.534;6.442;2023-05-10T02:34:03;3.60;;;1.90;;
62633;SDS011;48704;50.534;6.442;2023-05-10T02:36:31;4.10;;;1.63;;
62633;SDS011;48704;50.534;6.442;2023-05-10T02:38:57;3.58;;;1.88;;
62633;SDS011;48704;50.534;6.442;2023-05-10T02:41:24;4.55;;;2.40;;
62633;SDS011;48704;50.534;6.442;2023-05-10T02:43:51;3.70;;;2.13;;
62633;SDS011;48704;50.534;6.442;2023-05-10T02:46:20;4.53;;;1.92;;
62633;SDS011;48704;50.534;6.442;2023-05-10T02:48:46;4.47;;;2.50;;
62633;SDS011;48704;50.534;6.442;2023-05-10T02:51:11;5.70;;;3.10;;
62633;SDS011;48704;50.534;6.442;2023-05-10T02:53:40;4.05;;;2.28;;
62633;SDS011;48704;50.534;6.442;2023-05-10T02:56:11;5.05;;;2.70;;
62633;SDS011;48704;50.534;6.442;2023-05-10T02:58:40;5.03;;;2.72;;
62633;SDS011;48704;50.534;6.442;2023-05-10T03:01:05;5.95;;;3.45;;
62633;SDS011;48704;50.534;6.442;2023-05-10T03:03:32;5.22;;;3.03;;
62633;SDS011;48704;50.534;6.442;2023-05-10T03:05:58;6.93;;;3.17;;
62633;SDS011;48704;50.534;6.442;2023-05-10T03:08:23;11.13;;;5.25;;
62633;SDS011;48704;50.534;6.442;2023-05-10T03:10:59;12.60;;;6.57;;
62633;SDS011;48704;50.534;6.442;2023-05-10T03:13:37;12.10;;;6.70;;
62633;SDS011;48704;50.534;6.442;2023-05-10T03:16:10;10.98;;;6.13;;
62633;SDS011;48704;50.534;6.442;2023-05-10T03:21:10;15.27;;;7.35;;
62633;SDS011;48704;50.534;6.442;2023-05-10T03:23:43;15.15;;;7.22;;
62633;SDS011;48704;50.534;6.442;2023-05-10T03:26:20;15.68;;;7.25;;
62633;SDS011;48704;50.534;6.442;2023-05-10T03:28:50;14.65;;;7.25;;
62633;SDS011;48704;50.534;6.442;2023-05-10T03:31:17;12.70;;;6.75;;
62633;SDS011;48704;50.534;6.442;2023-05-10T03:33:47;12.57;;;6.45;;
62633;SDS011;48704;50.534;6.442;2023-05-10T03:36:13;12.80;;;6.57;;
62633;SDS011;48704;50.534;6.442;2023-05-10T03:38:38;12.35;;;6.13;;
62633;SDS011;48704;50.534;6.442;2023-05-10T03:41:04;11.38;;;6.20;;
62633;SDS011;48704;50.534;6.442;2023-05-10T03:43:29;15.60;;;7.88;;
62633;SDS011;48704;50.534;6.442;2023-05-10T03:45:54;15.13;;;7.70;;
62633;SDS011;48704;50.534;6.442;2023-05-10T03:48:19;17.98;;;8.95;;
62633;SDS011;48704;50.534;6.442;2023-05-10T03:50:45;17.13;;;8.40;;
62633;SDS011;48704;50.534;6.442;2023-05-10T03:53:10;17.17;;;8.60;;
62633;SDS011;48704;50.534;6.442;2023-05-10T03:55:36;19.83;;;9.23;;
62633;SDS011;48704;50.534;6.442;2023-05-10T03:58:01;19.20;;;8.88;;
62633;SDS011;48704;50.534;6.442;2023-05-10T04:00:26;19.70;;;8.43;;
62633;SDS011;48704;50.534;6.442;2023-05-10T04:02:52;18.05;;;8.68;;
62633;SDS011;48704;50.534;6.442;2023-05-10T04:05:17;14.93;;;9.02;;
62633;SDS011;48704;50.534;6.442;2023-05-10T04:07:42;15.48;;;7.70;;
62633;SDS011;48704;50.534;6.442;2023-05-10T04:10:09;13.27;;;7.22;;
62633;SDS011;48704;50.534;6.442;2023-05-10T04:12:34;15.30;;;7.20;;
62633;SDS011;48704;50.534;6.442;2023-05-10T04:15:00;13.10;;;6.55;;
62633;SDS011;48704;50.534;6.442;2023-05-10T04:17:25;13.45;;;6.78;;
62633;SDS011;48704;50.534;6.442;2023-05-10T04:19:50;12.20;;;7.00;;
62633;SDS011;48704;50.534;6.442;2023-05-10T04:22:17;13.38;;;6.50;;
62633;SDS011;48704;50.534;6.442;2023-05-10T04:24:43;13.00;;;6.70;;
62633;SDS011;48704;50.534;6.442;2023-05-10T04:27:08;12.10;;;6.32;;
62633;SDS011;48704;50.534;6.442;2023-05-10T04:29:33;11.40;;;6.10;;
62633;SDS011;48704;50.534;6.442;2023-05-10T04:31:58;14.32;;;6.75;;
62633;SDS011;48704;50.534;6.442;2023-05-10T04:34:24;11.10;;;6.40;;
62633;SDS011;48704;50.534;6.442;2023-05-10T04:36:49;13.70;;;6.15;;
62633;SDS011;48704;50.534;6.442;2023-05-10T04:39:15;11.80;;;5.53;;
62633;SDS011;48704;50.534;6.442;2023-05-10T04:41:40;10.57;;;5.53;;
62633;SDS011;48704;50.534;6.442;2023-05-10T04:44:05;9.52;;;5.22;;
62633;SDS011;48704;50.534;6.442;2023-05-10T04:46:31;7.68;;;4.55;;
62633;SDS011;48704;50.534;6.442;2023-05-10T04:48:56;8.13;;;4.30;;
62633;SDS011;48704;50.534;6.442;2023-05-10T04:51:21;8.07;;;4.30;;
62633;SDS011;48704;50.534;6.442;2023-05-10T04:53:47;7.93;;;4.55;;
62633;SDS011;48704;50.534;6.442;2023-05-10T04:56:12;9.55;;;4.65;;
62633;SDS011;48704;50.534;6.442;2023-05-10T04:58:37;7.68;;;3.50;;
62633;SDS011;48704;50.534;6.442;2023-05-10T05:01:06;8.32;;;3.65;;
62633;SDS011;48704;50.534;6.442;2023-05-10T05:03:32;6.68;;;3.08;;
62633;SDS011;48704;50.534;6.442;2023-05-10T05:05:58;8.23;;;3.85;;
62633;SDS011;48704;50.534;6.442;2023-05-10T05:08:23;6.80;;;3.08;;
62633;SDS011;48704;50.534;6.442;2023-05-10T05:10:49;5.78;;;3.65;;
62633;SDS011;48704;50.534;6.442;2023-05-10T05:13:15;8.18;;;3.28;;
62633;SDS011;48704;50.534;6.442;2023-05-10T05:15:40;7.47;;;3.88;;
62633;SDS011;48704;50.534;6.442;2023-05-10T05:18:05;8.30;;;3.42;;
62633;SDS011;48704;50.534;6.442;2023-05-10T05:20:34;7.43;;;3.03;;
62633;SDS011;48704;50.534;6.442;2023-05-10T05:22:59;6.47;;;2.90;;
62633;SDS011;48704;50.534;6.442;2023-05-10T05:25:25;8.02;;;3.20;;
62633;SDS011;48704;50.534;6.442;2023-05-10T05:27:50;6.13;;;3.00;;
62633;SDS011;48704;50.534;6.442;2023-05-10T05:30:15;5.32;;;2.65;;
62633;SDS011;48704;50.534;6.442;2023-05-10T05:32:41;6.18;;;2.70;;
62633;SDS011;48704;50.534;6.442;2023-05-10T05:35:06;7.20;;;3.28;;
62633;SDS011;48704;50.534;6.442;2023-05-10T05:37:32;6.97;;;2.85;;
62633;SDS011;48704;50.534;6.442;2023-05-10T05:39:57;6.32;;;3.30;;
62633;SDS011;48704;50.534;6.442;2023-05-10T05:42:22;5.80;;;2.60;;
62633;SDS011;48704;50.534;6.442;2023-05-10T05:44:47;6.53;;;2.50;;
62633;SDS011;48704;50.534;6.442;2023-05-10T05:47:13;5.68;;;3.05;;
62633;SDS011;48704;50.534;6.442;2023-05-10T05:49:38;6.32;;;2.90;;
62633;SDS011;48704;50.534;6.442;2023-05-10T05:52:04;8.68;;;2.60;;
62633;SDS011;48704;50.534;6.442;2023-05-10T05:54:30;6.65;;;2.50;;
62633;SDS011;48704;50.534;6.442;2023-05-10T05:56:59;5.82;;;2.38;;
62633;SDS011;48704;50.534;6.442;2023-05-10T05:59:25;5.13;;;2.60;;
62633;SDS011;48704;50.534;6.442;2023-05-10T06:01:51;5.30;;;2.60;;
62633;SDS011;48704;50.534;6.442;2023-05-10T06:04:17;4.80;;;2.28;;
62633;SDS011;48704;50.534;6.442;2023-05-10T06:06:42;5.57;;;2.28;;
62633;SDS011;48704;50.534;6.442;2023-05-10T06:09:08;4.18;;;1.98;;
62633;SDS011;48704;50.534;6.442;2023-05-10T06:11:33;3.35;;;1.67;;
62633;SDS011;48704;50.534;6.442;2023-05-10T06:13:59;4.75;;;2.00;;
62633;SDS011;48704;50.534;6.442;2023-05-10T06:16:25;5.25;;;1.75;;
62633;SDS011;48704;50.534;6.442;2023-05-10T06:18:50;3.40;;;1.42;;
62633;SDS011;48704;50.534;6.442;2023-05-10T06:21:16;3.17;;;1.60;;
62633;SDS011;48704;50.534;6.442;2023-05-10T06:23:41;5.22;;;1.45;;
62633;SDS011;48704;50.534;6.442;2023-05-10T06:26:07;2.60;;;1.20;;
62633;SDS011;48704;50.534;6.442;2023-05-10T06:28:32;3.45;;;1.50;;
62633;SDS011;48704;50.534;6.442;2023-05-10T06:30:58;3.72;;;1.33;;
62633;SDS011;48704;50.534;6.442;2023-05-10T06:33:24;5.15;;;1.60;;
62633;SDS011;48704;50.534;6.442;2023-05-10T06:35:49;3.17;;;1.13;;
62633;SDS011;48704;50.534;6.442;2023-05-10T06:38:14;2.92;;;1.20;;
62633;SDS011;48704;50.534;6.442;2023-05-10T06:40:43;2.78;;;1.10;;
62633;SDS011;48704;50.534;6.442;2023-05-10T06:43:09;3.85;;;1.40;;
62633;SDS011;48704;50.534;6.442;2023-05-10T06:45:35;3.85;;;1.60;;
62633;SDS011;48704;50.534;6.442;2023-05-10T06:48:00;2.75;;;1.20;;
62633;SDS011;48704;50.534;6.442;2023-05-10T06:50:26;2.80;;;1.27;;
62633;SDS011;48704;50.534;6.442;2023-05-10T06:52:51;2.53;;;1.17;;
62633;SDS011;48704;50.534;6.442;2023-05-10T06:55:17;2.80;;;0.90;;
62633;SDS011;48704;50.534;6.442;2023-05-10T06:57:42;1.67;;;0.50;;
62633;SDS011;48704;50.534;6.442;2023-05-10T07:00:07;1.90;;;0.50;;
62633;SDS011;48704;50.534;6.442;2023-05-10T07:02:34;2.53;;;0.80;;
62633;SDS011;48704;50.534;6.442;2023-05-10T07:05:00;0.60;;;0.30;;
62633;SDS011;48704;50.534;6.442;2023-05-10T07:07:25;1.30;;;0.40;;
62633;SDS011;48704;50.534;6.442;2023-05-10T07:09:51;1.27;;;0.30;;
62633;SDS011;48704;50.534;6.442;2023-05-10T07:12:16;0.85;;;0.50;;
62633;SDS011;48704;50.534;6.442;2023-05-10T07:14:41;1.27;;;0.47;;
62633;SDS011;48704;50.534;6.442;2023-05-10T07:17:07;0.98;;;0.30;;
62633;SDS011;48704;50.534;6.442;2023-05-10T07:19:32;0.22;;;0.10;;
62633;SDS011;48704;50.534;6.442;2023-05-10T07:21:58;1.55;;;0.40;;
62633;SDS011;48704;50.534;6.442;2023-05-10T07:24:23;0.65;;;0.22;;
62633;SDS011;48704;50.534;6.442;2023-05-10T07:26:49;1.13;;;0.40;;
62633;SDS011;48704;50.534;6.442;2023-05-10T07:29:14;0.25;;;0.13;;
62633;SDS011;48704;50.534;6.442;2023-05-10T07:31:39;0.35;;;0.20;;
62633;SDS011;48704;50.534;6.442;2023-05-10T07:34:06;1.60;;;0.20;;
62633;SDS011;48704;50.534;6.442;2023-05-10T07:36:32;1.25;;;0.20;;
62633;SDS011;48704;50.534;6.442;2023-05-10T07:38:57;0.25;;;0.10;;
62633;SDS011;48704;50.534;6.442;2023-05-10T07:41:23;1.48;;;0.20;;
62633;SDS011;48704;50.534;6.442;2023-05-10T07:43:48;0.20;;;0.10;;
62633;SDS011;48704;50.534;6.442;2023-05-10T07:46:13;0.17;;;0.10;;
62633;SDS011;48704;50.534;6.442;2023-05-10T07:48:39;0.60;;;0.38;;
62633;SDS011;48704;50.534;6.442;2023-05-10T07:51:04;0.52;;;0.40;;
62633;SDS011;48704;50.534;6.442;2023-05-10T07:53:31;0.65;;;0.40;;
62633;SDS011;48704;50.534;6.442;2023-05-10T07:55:57;0.20;;;0.10;;
62633;SDS011;48704;50.534;6.442;2023-05-10T07:58:23;0.60;;;0.20;;
62633;SDS011;48704;50.534;6.442;2023-05-10T08:00:49;0.10;;;0.10;;
62633;SDS011;48704;50.534;6.442;2023-05-10T08:03:15;1.60;;;0.60;;
62633;SDS011;48704;50.534;6.442;2023-05-10T08:05:40;1.52;;;0.90;;
62633;SDS011;48704;50.534;6.442;2023-05-10T08:08:06;1.75;;;0.80;;
62633;SDS011;48704;50.534;6.442;2023-05-10T08:10:31;1.55;;;0.80;;
62633;SDS011;48704;50.534;6.442;2023-05-10T08:12:56;2.20;;;1.15;;
62633;SDS011;48704;50.534;6.442;2023-05-10T08:15:23;3.05;;;1.77;;
62633;SDS011;48704;50.534;6.442;2023-05-10T08:17:49;4.35;;;2.70;;
62633;SDS011;48704;50.534;6.442;2023-05-10T08:20:14;3.53;;;1.80;;
62633;SDS011;48704;50.534;6.442;2023-05-10T08:22:41;2.67;;;0.60;;
62633;SDS011;48704;50.534;6.442;2023-05-10T08:25:07;0.20;;;0.15;;
62633;SDS011;48704;50.534;6.442;2023-05-10T08:27:32;0.95;;;0.57;;
62633;SDS011;48704;50.534;6.442;2023-05-10T08:29:58;1.52;;;0.20;;
62633;SDS011;48704;50.534;6.442;2023-05-10T08:32:23;0.22;;;0.10;;
62633;SDS011;48704;50.534;6.442;2023-05-10T08:34:48;0.30;;;0.15;;
62633;SDS011;48704;50.534;6.442;2023-05-10T08:37:13;0.22;;;0.10;;
62633;SDS011;48704;50.534;6.442;2023-05-10T08:39:39;0.57;;;0.17;;
62633;SDS011;48704;50.534;6.442;2023-05-10T08:42:04;0.50;;;0.20;;
62633;SDS011;48704;50.534;6.442;2023-05-10T08:44:32;0.40;;;0.17;;
62633;SDS011;48704;50.534;6.442;2023-05-10T08:46:59;0.15;;;0.13;;
62633;SDS011;48704;50.534;6.442;2023-05-10T08:49:27;1.13;;;0.30;;
62633;SDS011;48704;50.534;6.442;2023-05-10T08:51:55;0.50;;;0.30;;
62633;SDS011;48704;50.534;6.442;2023-05-10T08:54:23;0.45;;;0.25;;
62633;SDS011;48704;50.534;6.442;2023-05-10T08:56:49;0.40;;;0.28;;
62633;SDS011;48704;50.534;6.442;2023-05-10T08:59:14;0.98;;;0.22;;
62633;SDS011;48704;50.534;6.442;2023-05-10T09:01:40;0.80;;;0.30;;
62633;SDS011;48704;50.534;6.442;2023-05-10T09:04:09;0.43;;;0.30;;
62633;SDS011;48704;50.534;6.442;2023-05-10T09:06:34;0.85;;;0.40;;
62633;SDS011;48704;50.534;6.442;2023-05-10T09:08:59;1.67;;;0.30;;
62633;SDS011;48704;50.534;6.442;2023-05-10T09:11:26;0.82;;;0.45;;
62633;SDS011;48704;50.534;6.442;2023-05-10T09:13:53;1.65;;;0.40;;
62633;SDS011;48704;50.534;6.442;2023-05-10T09:16:19;0.55;;;0.32;;
62633;SDS011;48704;50.534;6.442;2023-05-10T09:18:45;0.75;;;0.50;;
62633;SDS011;48704;50.534;6.442;2023-05-10T09:21:10;4.45;;;0.80;;
62633;SDS011;48704;50.534;6.442;2023-05-10T09:23:36;0.85;;;0.43;;
62633;SDS011;48704;50.534;6.442;2023-05-10T09:26:05;1.02;;;0.40;;
62633;SDS011;48704;50.534;6.442;2023-05-10T09:28:33;0.60;;;0.40;;
62633;SDS011;48704;50.534;6.442;2023-05-10T09:31:00;0.95;;;0.40;;
62633;SDS011;48704;50.534;6.442;2023-05-10T09:33:25;1.10;;;0.50;;
62633;SDS011;48704;50.534;6.442;2023-05-10T09:35:51;0.45;;;0.32;;
62633;SDS011;48704;50.534;6.442;2023-05-10T09:38:17;0.55;;;0.35;;
62633;SDS011;48704;50.534;6.442;2023-05-10T09:40:42;0.30;;;0.30;;
62633;SDS011;48704;50.534;6.442;2023-05-10T09:43:19;1.10;;;0.57;;
62633;SDS011;48704;50.534;6.442;2023-05-10T09:45:45;0.80;;;0.40;;
62633;SDS011;48704;50.534;6.442;2023-05-10T09:48:13;0.75;;;0.40;;
62633;SDS011;48704;50.534;6.442;2023-05-10T09:50:38;1.02;;;0.50;;
62633;SDS011;48704;50.534;6.442;2023-05-10T09:53:04;0.60;;;0.40;;
62633;SDS011;48704;50.534;6.442;2023-05-10T09:58:01;1.02;;;0.40;;
62633;SDS011;48704;50.534;6.442;2023-05-10T10:00:27;0.70;;;0.30;;
62633;SDS011;48704;50.534;6.442;2023-05-10T10:02:56;0.98;;;0.40;;
62633;SDS011;48704;50.534;6.442;2023-05-10T10:05:56;1.23;;;0.52;;
62633;SDS011;48704;50.534;6.442;2023-05-10T10:08:15;0.77;;;0.50;;
62633;SDS011;48704;50.534;6.442;2023-05-10T10:10:41;0.75;;;0.40;;
62633;SDS011;48704;50.534;6.442;2023-05-10T10:13:09;0.57;;;0.32;;
62633;SDS011;48704;50.534;6.442;2023-05-10T10:15:34;0.52;;;0.32;;
62633;SDS011;48704;50.534;6.442;2023-05-10T10:18:00;0.63;;;0.50;;
62633;SDS011;48704;50.534;6.442;2023-05-10T10:20:26;0.30;;;0.30;;
62633;SDS011;48704;50.534;6.442;2023-05-10T10:22:52;0.60;;;0.32;;
62633;SDS011;48704;50.534;6.442;2023-05-10T10:25:17;0.82;;;0.40;;
62633;SDS011;48704;50.534;6.442;2023-05-10T10:30:25;0.90;;;0.50;;
62633;SDS011;48704;50.534;6.442;2023-05-10T10:35:26;1.20;;;0.40;;
62633;SDS011;48704;50.534;6.442;2023-05-10T10:37:54;0.35;;;0.20;;
62633;SDS011;48704;50.534;6.442;2023-05-10T10:40:29;2.95;;;0.40;;
62633;SDS011;48704;50.534;6.442;2023-05-10T10:42:56;1.95;;;0.40;;
62633;SDS011;48704;50.534;6.442;2023-05-10T10:45:23;0.60;;;0.35;;
62633;SDS011;48704;50.534;6.442;2023-05-10T10:47:53;0.65;;;0.32;;
62633;SDS011;48704;50.534;6.442;2023-05-10T10:50:45;0.65;;;0.40;;
62633;SDS011;48704;50.534;6.442;2023-05-10T10:53:13;1.38;;;0.63;;
62633;SDS011;48704;50.534;6.442;2023-05-10T10:55:45;1.92;;;0.40;;
62633;SDS011;48704;50.534;6.442;2023-05-10T10:58:12;0.93;;;0.38;;
62633;SDS011;48704;50.534;6.442;2023-05-10T11:01:08;1.25;;;0.60;;
62633;SDS011;48704;50.534;6.442;2023-05-10T11:03:54;0.68;;;0.50;;
62633;SDS011;48704;50.534;6.442;2023-05-10T11:06:40;0.95;;;0.47;;
62633;SDS011;48704;50.534;6.442;2023-05-10T11:09:06;2.10;;;0.50;;
62633;SDS011;48704;50.534;6.442;2023-05-10T11:11:32;0.90;;;0.50;;
62633;SDS011;48704;50.534;6.442;2023-05-10T11:14:03;2.35;;;0.40;;
62633;SDS011;48704;50.534;6.442;2023-05-10T11:16:40;0.70;;;0.40;;
62633;SDS011;48704;50.534;6.442;2023-05-10T11:19:08;3.30;;;0.63;;
62633;SDS011;48704;50.534;6.442;2023-05-10T11:21:44;0.32;;;0.32;;
62633;SDS011;48704;50.534;6.442;2023-05-10T11:24:32;1.63;;;0.60;;
62633;SDS011;48704;50.534;6.442;2023-05-10T11:26:58;1.08;;;0.52;;
62633;SDS011;48704;50.534;6.442;2023-05-10T11:29:24;3.28;;;0.70;;
62633;SDS011;48704;50.534;6.442;2023-05-10T11:31:51;0.95;;;0.70;;
62633;SDS011;48704;50.534;6.442;2023-05-10T11:34:29;0.68;;;0.40;;
62633;SDS011;48704;50.534;6.442;2023-05-10T11:36:58;1.95;;;0.60;;
62633;SDS011;48704;50.534;6.442;2023-05-10T11:39:28;0.30;;;0.30;;
62633;SDS011;48704;50.534;6.442;2023-05-10T11:41:55;0.50;;;0.40;;
62633;SDS011;48704;50.534;6.442;2023-05-10T11:44:20;1.55;;;0.80;;
62633;SDS011;48704;50.534;6.442;2023-05-10T11:46:46;4.15;;;1.83;;
62633;SDS011;48704;50.534;6.442;2023-05-10T11:49:11;1.58;;;0.90;;
62633;SDS011;48704;50.534;6.442;2023-05-10T11:51:38;2.70;;;1.83;;
62633;SDS011;48704;50.534;6.442;2023-05-10T11:54:07;2.90;;;2.30;;
62633;SDS011;48704;50.534;6.442;2023-05-10T11:56:34;2.97;;;0.80;;
62633;SDS011;48704;50.534;6.442;2023-05-10T11:58:59;11.68;;;6.05;;
62633;SDS011;48704;50.534;6.442;2023-05-10T12:01:26;2.50;;;1.08;;
62633;SDS011;48704;50.534;6.442;2023-05-10T12:03:53;3.08;;;0.90;;
62633;SDS011;48704;50.534;6.442;2023-05-10T12:06:19;1.58;;;0.70;;
62633;SDS011;48704;50.534;6.442;2023-05-10T12:08:46;4.35;;;2.78;;
62633;SDS011;48704;50.534;6.442;2023-05-10T12:11:13;1.88;;;0.90;;
62633;SDS011;48704;50.534;6.442;2023-05-10T12:13:41;1.33;;;0.60;;
62633;SDS011;48704;50.534;6.442;2023-05-10T12:16:28;1.35;;;0.52;;
62633;SDS011;48704;50.534;6.442;2023-05-10T12:18:56;1.00;;;0.47;;
62633;SDS011;48704;50.534;6.442;2023-05-10T12:21:23;1.38;;;0.70;;
62633;SDS011;48704;50.534;6.442;2023-05-10T12:23:52;2.30;;;0.70;;
62633;SDS011;48704;50.534;6.442;2023-05-10T12:26:24;1.50;;;0.70;;
62633;SDS011;48704;50.534;6.442;2023-05-10T12:28:51;3.83;;;0.80;;
62633;SDS011;48704;50.534;6.442;2023-05-10T12:31:17;1.83;;;0.90;;
62633;SDS011;48704;50.534;6.442;2023-05-10T12:33:43;1.95;;;0.70;;
62633;SDS011;48704;50.534;6.442;2023-05-10T12:36:10;1.80;;;0.90;;
62633;SDS011;48704;50.534;6.442;2023-05-10T12:38:37;1.95;;;0.80;;
62633;SDS011;48704;50.534;6.442;2023-05-10T12:41:08;2.80;;;0.70;;
62633;SDS011;48704;50.534;6.442;2023-05-10T12:43:35;1.30;;;0.90;;
62633;SDS011;48704;50.534;6.442;2023-05-10T12:46:05;1.58;;;0.90;;
62633;SDS011;48704;50.534;6.442;2023-05-10T12:48:37;1.15;;;0.70;;
62633;SDS011;48704;50.534;6.442;2023-05-10T12:51:03;1.65;;;0.75;;
62633;SDS011;48704;50.534;6.442;2023-05-10T12:53:29;2.13;;;0.85;;
62633;SDS011;48704;50.534;6.442;2023-05-10T12:55:55;1.80;;;0.80;;
62633;SDS011;48704;50.534;6.442;2023-05-10T12:58:20;2.33;;;1.00;;
62633;SDS011;48704;50.534;6.442;2023-05-10T13:00:46;2.50;;;0.80;;
62633;SDS011;48704;50.534;6.442;2023-05-10T13:03:11;1.60;;;0.80;;
62633;SDS011;48704;50.534;6.442;2023-05-10T13:05:37;1.25;;;0.57;;
62633;SDS011;48704;50.534;6.442;2023-05-10T13:08:03;1.13;;;0.60;;
62633;SDS011;48704;50.534;6.442;2023-05-10T13:10:29;1.00;;;0.50;;
62633;SDS011;48704;50.534;6.442;2023-05-10T13:12:56;0.50;;;0.30;;
62633;SDS011;48704;50.534;6.442;2023-05-10T13:15:22;1.13;;;0.60;;
62633;SDS011;48704;50.534;6.442;2023-05-10T13:17:47;1.92;;;0.50;;
62633;SDS011;48704;50.534;6.442;2023-05-10T13:20:13;0.60;;;0.40;;
62633;SDS011;48704;50.534;6.442;2023-05-10T13:22:38;2.17;;;0.80;;
62633;SDS011;48704;50.534;6.442;2023-05-10T13:25:04;0.60;;;0.47;;
62633;SDS011;48704;50.534;6.442;2023-05-10T13:27:30;1.60;;;0.75;;
62633;SDS011;48704;50.534;6.442;2023-05-10T13:29:55;1.80;;;0.88;;
62633;SDS011;48704;50.534;6.442;2023-05-10T13:32:20;1.45;;;0.60;;
62633;SDS011;48704;50.534;6.442;2023-05-10T13:34:46;1.42;;;0.70;;
62633;SDS011;48704;50.534;6.442;2023-05-10T13:37:11;1.92;;;0.80;;
62633;SDS011;48704;50.534;6.442;2023-05-10T13:39:36;2.13;;;0.80;;
62633;SDS011;48704;50.534;6.442;2023-05-10T13:42:02;3.20;;;0.70;;
62633;SDS011;48704;50.534;6.442;2023-05-10T13:44:28;1.65;;;0.90;;
62633;SDS011;48704;50.534;6.442;2023-05-10T13:46:53;2.35;;;0.75;;
62633;SDS011;48704;50.534;6.442;2023-05-10T13:49:19;1.15;;;0.68;;
62633;SDS011;48704;50.534;6.442;2023-05-10T13:51:44;3.97;;;0.90;;
62633;SDS011;48704;50.534;6.442;2023-05-10T13:54:09;1.63;;;1.10;;
62633;SDS011;48704;50.534;6.442;2023-05-10T13:56:34;1.42;;;0.90;;
62633;SDS011;48704;50.534;6.442;2023-05-10T13:59:00;2.83;;;0.90;;
62633;SDS011;48704;50.534;6.442;2023-05-10T14:01:25;1.48;;;0.90;;
62633;SDS011;48704;50.534;6.442;2023-05-10T14:03:50;1.73;;;0.68;;
62633;SDS011;48704;50.534;6.442;2023-05-10T14:06:16;1.10;;;0.60;;
62633;SDS011;48704;50.534;6.442;2023-05-10T14:08:41;1.80;;;0.70;;
62633;SDS011;48704;50.534;6.442;2023-05-10T14:11:06;1.55;;;0.80;;
62633;SDS011;48704;50.534;6.442;2023-05-10T14:13:32;1.73;;;0.57;;
62633;SDS011;48704;50.534;6.442;2023-05-10T14:15:58;1.52;;;0.55;;
62633;SDS011;48704;50.534;6.442;2023-05-10T14:18:25;1.75;;;0.73;;
62633;SDS011;48704;50.534;6.442;2023-05-10T14:20:51;1.25;;;0.80;;
62633;SDS011;48704;50.534;6.442;2023-05-10T14:23:16;1.88;;;0.65;;
62633;SDS011;48704;50.534;6.442;2023-05-10T14:25:42;1.02;;;0.60;;
62633;SDS011;48704;50.534;6.442;2023-05-10T14:28:07;2.00;;;0.65;;
62633;SDS011;48704;50.534;6.442;2023-05-10T14:30:32;1.13;;;0.70;;
62633;SDS011;48704;50.534;6.442;2023-05-10T14:32:59;0.95;;;0.60;;
62633;SDS011;48704;50.534;6.442;2023-05-10T14:35:26;2.05;;;0.82;;
62633;SDS011;48704;50.534;6.442;2023-05-10T14:37:52;1.50;;;1.02;;
62633;SDS011;48704;50.534;6.442;2023-05-10T14:40:17;1.38;;;0.73;;
62633;SDS011;48704;50.534;6.442;2023-05-10T14:42:42;1.80;;;1.00;;
62633;SDS011;48704;50.534;6.442;2023-05-10T14:45:08;1.65;;;0.98;;
62633;SDS011;48704;50.534;6.442;2023-05-10T14:47:34;3.13;;;1.50;;
62633;SDS011;48704;50.534;6.442;2023-05-10T14:50:00;2.35;;;1.10;;
62633;SDS011;48704;50.534;6.442;2023-05-10T14:52:26;2.05;;;1.10;;
62633;SDS011;48704;50.534;6.442;2023-05-10T14:54:52;2.28;;;1.00;;
62633;SDS011;48704;50.534;6.442;2023-05-10T14:57:18;2.28;;;0.80;;
62633;SDS011;48704;50.534;6.442;2023-05-10T14:59:43;2.58;;;1.10;;
62633;SDS011;48704;50.534;6.442;2023-05-10T15:02:08;3.08;;;1.00;;
62633;SDS011;48704;50.534;6.442;2023-05-10T15:04:35;1.15;;;0.73;;
62633;SDS011;48704;50.534;6.442;2023-05-10T15:07:00;2.00;;;0.90;;
62633;SDS011;48704;50.534;6.442;2023-05-10T15:09:25;2.83;;;1.08;;